Terminal Aerodrome Forecast
Issued by NWS

Home | Current Version | Previous Version | Text Only | Print | Product List | Glossary On
Versions: 1 2 3 4 5 6 7 8 9 10 11 12 13 14
584
FTUS46 KMTR 241134
TAFMRY
TAF
KMRY 241134Z 2412/2512 22004KT P6SM BKN150
     FM241600 29005KT P6SM BKN050 OVC100
     FM241900 29010G15KT P6SM -SHRA OVC050
     FM250400 23007KT P6SM SCT080=

USA.gov is the U.S. government's official web portal to all federal, state and local government web resources and services.